Time,TemperatureF,DewpointF,PressureIn,WindDirection,WindDirectionDegrees,WindSpeedMPH,WindSpeedGustMPH,Humidity,HourlyPrecipIn,Conditions,Clouds,dailyrainin,SoftwareType,DateUTC
2013-03-22 00:04:00,32.5,16.4,30.03,NW,314,2.0,9.0,51,0.00,,,0.00,Wunderground v.1.15,2013-03-22 05:04:00,
2013-03-22 00:10:00,32.5,16.8,30.03,NW,309,1.0,9.0,52,0.00,,,0.00,Wunderground v.1.15,2013-03-22 05:10:00,
2013-03-22 00:15:00,32.4,16.7,30.03,NW,314,1.0,9.0,52,0.00,,,0.00,Wunderground v.1.15,2013-03-22 05:15:00,
2013-03-22 00:21:00,32.5,16.8,30.03,NW,310,2.0,9.0,52,0.00,,,0.00,Wunderground v.1.15,2013-03-22 05:21:00,
2013-03-22 00:26:00,32.5,16.8,30.03,NW,311,1.0,9.0,52,0.00,,,0.00,Wunderground v.1.15,2013-03-22 05:26:00,
2013-03-22 00:32:00,32.4,16.7,30.03,NW,310,0.0,9.0,52,0.00,,,0.00,Wunderground v.1.15,2013-03-22 05:32:00,
2013-03-22 00:38:00,32.2,18.2,30.03,NW,310,0.0,9.0,56,0.00,,,0.00,Wunderground v.1.15,2013-03-22 05:38:00,
2013-03-22 00:43:00,31.9,17.1,30.04,NW,311,1.0,9.0,54,0.00,,,0.00,Wunderground v.1.15,2013-03-22 05:43:00,
2013-03-22 00:49:00,31.8,19.1,30.04,NW,310,1.0,9.0,59,0.00,,,0.00,Wunderground v.1.15,2013-03-22 05:49:00,
2013-03-22 00:54:00,31.0,20.2,30.04,NW,320,1.0,9.0,64,0.00,,,0.00,Wunderground v.1.15,2013-03-22 05:54:00,
2013-03-22 01:00:00,30.7,20.0,30.05,NW,316,1.0,9.0,64,0.00,,,0.00,Wunderground v.1.15,2013-03-22 06:00:00,
2013-03-22 01:05:00,31.0,19.5,30.05,NE,56,1.0,9.0,62,0.00,,,0.00,Wunderground v.1.15,2013-03-22 06:05:00,
2013-03-22 01:10:00,31.0,19.9,30.05,NW,309,2.0,2.0,63,0.00,,,0.00,Wunderground v.1.15,2013-03-22 06:10:00,
2013-03-22 01:15:00,31.0,20.2,30.05,NW,323,2.0,9.0,64,0.00,,,0.00,Wunderground v.1.15,2013-03-22 06:15:00,
2013-03-22 01:21:00,31.0,19.9,30.05,North,359,2.0,9.0,63,0.00,,,0.00,Wunderground v.1.15,2013-03-22 06:21:00,
2013-03-22 01:26:00,31.1,19.6,30.05,NNW,347,2.0,9.0,62,0.00,,,0.00,Wunderground v.1.15,2013-03-22 06:26:00,
2013-03-22 01:32:00,31.4,19.5,30.05,NNW,339,2.0,9.0,61,0.00,,,0.00,Wunderground v.1.15,2013-03-22 06:32:00,
2013-03-22 01:38:00,31.5,19.2,30.05,NW,321,2.0,9.0,60,0.00,,,0.00,Wunderground v.1.15,2013-03-22 06:38:00,
2013-03-22 01:43:00,31.5,19.2,30.04,NW,314,2.0,9.0,60,0.00,,,0.00,Wunderground v.1.15,2013-03-22 06:43:00,
2013-03-22 01:49:00,31.5,19.2,30.04,NNW,337,2.0,9.0,60,0.00,,,0.00,Wunderground v.1.15,2013-03-22 06:49:00,
2013-03-22 01:54:00,31.5,19.6,30.04,NW,313,2.0,9.0,61,0.00,,,0.00,Wunderground v.1.15,2013-03-22 06:54:00,
2013-03-22 01:59:00,31.3,19.4,30.04,NW,314,1.0,9.0,61,0.00,,,0.00,Wunderground v.1.15,2013-03-22 06:59:00,
2013-03-22 02:05:00,31.2,19.7,30.04,NW,320,2.0,9.0,62,0.00,,,0.00,Wunderground v.1.15,2013-03-22 07:05:00,
2013-03-22 02:11:00,31.1,19.6,30.03,NW,318,2.0,9.0,62,0.00,,,0.00,Wunderground v.1.15,2013-03-22 07:11:00,
2013-03-22 02:16:00,31.0,19.5,30.04,NW,321,2.0,9.0,62,0.00,,,0.00,Wunderground v.1.15,2013-03-22 07:16:00,
2013-03-22 02:21:00,30.9,19.4,30.04,NNW,334,2.0,9.0,62,0.00,,,0.00,Wunderground v.1.15,2013-03-22 07:21:00,
2013-03-22 02:26:00,30.8,19.3,30.04,NW,314,2.0,9.0,62,0.00,,,0.00,Wunderground v.1.15,2013-03-22 07:26:00,
2013-03-22 02:32:00,30.9,19.4,30.04,NNW,328,2.0,9.0,62,0.00,,,0.00,Wunderground v.1.15,2013-03-22 07:32:00,
2013-03-22 02:37:00,30.8,19.7,30.03,NW,320,2.0,9.0,63,0.00,,,0.00,Wunderground v.1.15,2013-03-22 07:37:00,
2013-03-22 02:43:00,30.8,19.7,30.03,NW,314,2.0,9.0,63,0.00,,,0.00,Wunderground v.1.15,2013-03-22 07:43:00,
2013-03-22 02:48:00,30.6,19.9,30.03,NW,317,2.0,9.0,64,0.00,,,0.00,Wunderground v.1.15,2013-03-22 07:48:00,
2013-03-22 02:53:00,30.5,19.8,30.03,NW,317,2.0,9.0,64,0.00,,,0.00,Wunderground v.1.15,2013-03-22 07:53:00,
2013-03-22 02:59:00,30.4,20.0,30.03,NW,310,2.0,9.0,65,0.00,,,0.00,Wunderground v.1.15,2013-03-22 07:59:00,
2013-03-22 03:04:00,30.4,20.4,30.04,NW,310,1.0,9.0,66,0.00,,,0.00,Wunderground v.1.15,2013-03-22 08:04:00,
2013-03-22 03:10:00,30.4,20.4,30.04,NW,310,1.0,9.0,66,0.00,,,0.00,Wunderground v.1.15,2013-03-22 08:10:00,
2013-03-22 03:15:00,30.4,20.4,30.04,NW,309,1.0,9.0,66,0.00,,,0.00,Wunderground v.1.15,2013-03-22 08:15:00,
2013-03-22 03:20:00,30.6,20.2,30.04,NW,309,0.0,9.0,65,0.00,,,0.00,Wunderground v.1.15,2013-03-22 08:20:00,
2013-03-22 03:26:00,30.6,20.2,30.04,NNW,328,1.0,9.0,65,0.00,,,0.00,Wunderground v.1.15,2013-03-22 08:26:00,
2013-03-22 03:31:00,30.8,21.1,30.04,NW,325,2.0,9.0,67,0.00,,,0.00,Wunderground v.1.15,2013-03-22 08:31:00,
2013-03-22 03:37:00,30.7,21.4,30.04,NW,313,2.0,9.0,68,0.00,,,0.00,Wunderground v.1.15,2013-03-22 08:37:00,
2013-03-22 03:42:00,30.8,21.5,30.04,NW,310,1.0,9.0,68,0.00,,,0.00,Wunderground v.1.15,2013-03-22 08:42:00,
2013-03-22 03:47:00,30.9,20.9,30.04,NW,310,0.0,9.0,66,0.00,,,0.00,Wunderground v.1.15,2013-03-22 08:47:00,
2013-03-22 03:53:00,31.3,20.5,30.04,NNW,328,1.0,9.0,64,0.00,,,0.00,Wunderground v.1.15,2013-03-22 08:53:00,
2013-03-22 03:58:00,31.5,20.0,30.03,NW,310,1.0,9.0,62,0.00,,,0.00,Wunderground v.1.15,2013-03-22 08:58:00,
2013-03-22 04:03:00,31.6,19.7,30.04,NW,310,1.0,9.0,61,0.00,,,0.00,Wunderground v.1.15,2013-03-22 09:03:00,
2013-03-22 04:09:00,31.6,20.4,30.04,NW,309,1.0,9.0,63,0.00,,,0.00,Wunderground v.1.15,2013-03-22 09:09:00,
2013-03-22 04:14:00,31.6,22.2,30.04,NW,309,1.0,9.0,68,0.00,,,0.00,Wunderground v.1.15,2013-03-22 09:14:00,
2013-03-22 04:20:00,31.2,22.2,30.04,NW,311,1.0,1.0,69,0.00,,,0.00,Wunderground v.1.15,2013-03-22 09:20:00,
2013-03-22 04:26:00,31.0,22.0,30.04,NNW,335,1.0,9.0,69,0.00,,,0.00,Wunderground v.1.15,2013-03-22 09:26:00,
2013-03-22 04:32:00,31.1,21.8,30.04,NNW,334,1.0,9.0,68,0.00,,,0.00,Wunderground v.1.15,2013-03-22 09:32:00,
2013-03-22 04:37:00,31.3,20.9,30.04,NW,321,2.0,9.0,65,0.00,,,0.00,Wunderground v.1.15,2013-03-22 09:37:00,
2013-03-22 04:43:00,31.5,20.7,30.04,NW,316,2.0,9.0,64,0.00,,,0.00,Wunderground v.1.15,2013-03-22 09:43:00,
2013-03-22 04:48:00,31.6,20.1,30.04,NW,311,1.0,9.0,62,0.00,,,0.00,Wunderground v.1.15,2013-03-22 09:48:00,
2013-03-22 04:53:00,31.8,19.1,30.04,NW,314,1.0,9.0,59,0.00,,,0.00,Wunderground v.1.15,2013-03-22 09:53:00,
2013-03-22 04:59:00,31.9,19.2,30.04,NW,311,1.0,9.0,59,0.00,,,0.00,Wunderground v.1.15,2013-03-22 09:59:00,
2013-03-22 05:04:00,32.0,19.3,30.04,NW,311,1.0,9.0,59,0.00,,,0.00,Wunderground v.1.15,2013-03-22 10:04:00,
2013-03-22 05:09:00,32.0,19.3,30.04,NW,310,1.0,9.0,59,0.00,,,0.00,Wunderground v.1.15,2013-03-22 10:09:00,
2013-03-22 05:15:00,32.0,19.3,30.04,NW,311,1.0,9.0,59,0.00,,,0.00,Wunderground v.1.15,2013-03-22 10:15:00,
2013-03-22 05:20:00,32.0,19.7,30.04,NW,311,1.0,9.0,60,0.00,,,0.00,Wunderground v.1.15,2013-03-22 10:20:00,
2013-03-22 05:26:00,32.0,19.3,30.04,NW,316,1.0,9.0,59,0.00,,,0.00,Wunderground v.1.15,2013-03-22 10:26:00,
2013-03-22 05:31:00,32.0,19.7,30.05,NW,311,1.0,2.0,60,0.00,,,0.00,Wunderground v.1.15,2013-03-22 10:31:00,
2013-03-22 05:36:00,32.0,18.9,30.05,NW,311,1.0,9.0,58,0.00,,,0.00,Wunderground v.1.15,2013-03-22 10:36:00,
2013-03-22 05:42:00,32.0,18.1,30.05,NW,311,1.0,9.0,56,0.00,,,0.00,Wunderground v.1.15,2013-03-22 10:42:00,
2013-03-22 05:47:00,32.1,18.2,30.05,NW,310,1.0,9.0,56,0.00,,,0.00,Wunderground v.1.15,2013-03-22 10:47:00,
2013-03-22 05:52:00,32.1,18.6,30.05,NW,318,1.0,9.0,57,0.00,,,0.00,Wunderground v.1.15,2013-03-22 10:52:00,
2013-03-22 05:58:00,32.1,18.6,30.05,NW,324,1.0,9.0,57,0.00,,,0.00,Wunderground v.1.15,2013-03-22 10:58:00,
2013-03-22 06:03:00,32.2,18.2,30.05,NW,309,2.0,9.0,56,0.00,,,0.00,Wunderground v.1.15,2013-03-22 11:03:00,
2013-03-22 06:09:00,32.2,18.2,30.05,NW,311,1.0,9.0,56,0.00,,,0.00,Wunderground v.1.15,2013-03-22 11:09:00,
2013-03-22 06:14:00,32.3,18.8,30.05,NW,317,1.0,9.0,57,0.00,,,0.00,Wunderground v.1.15,2013-03-22 11:14:00,
2013-03-22 06:19:00,32.3,18.3,30.06,NW,309,1.0,9.0,56,0.00,,,0.00,Wunderground v.1.15,2013-03-22 11:19:00,
2013-03-22 06:25:00,32.3,18.3,30.05,NW,309,1.0,9.0,56,0.00,,,0.00,Wunderground v.1.15,2013-03-22 11:25:00,
2013-03-22 06:30:00,32.4,18.0,30.06,NW,309,1.0,1.0,55,0.00,,,0.00,Wunderground v.1.15,2013-03-22 11:30:00,
2013-03-22 06:36:00,32.4,18.4,30.06,NW,311,1.0,9.0,56,0.00,,,0.00,Wunderground v.1.15,2013-03-22 11:36:00,
2013-03-22 06:41:00,32.4,18.0,30.06,NW,311,1.0,9.0,55,0.00,,,0.00,Wunderground v.1.15,2013-03-22 11:41:00,
2013-03-22 06:47:00,32.5,18.5,30.07,NW,311,1.0,9.0,56,0.00,,,0.00,Wunderground v.1.15,2013-03-22 11:47:00,
2013-03-22 06:52:00,32.5,18.1,30.06,NW,311,1.0,9.0,55,0.00,,,0.00,Wunderground v.1.15,2013-03-22 11:52:00,
2013-03-22 06:57:00,32.5,18.1,30.07,NW,313,1.0,9.0,55,0.00,,,0.00,Wunderground v.1.15,2013-03-22 11:57:00,
2013-03-22 07:03:00,32.6,18.2,30.07,NW,311,1.0,9.0,55,0.00,,,0.00,Wunderground v.1.15,2013-03-22 12:03:00,
2013-03-22 07:08:00,32.6,18.2,30.06,NW,325,1.0,9.0,55,0.00,,,0.00,Wunderground v.1.15,2013-03-22 12:08:00,
2013-03-22 07:14:00,32.7,18.7,30.07,NW,310,1.0,9.0,56,0.00,,,0.00,Wunderground v.1.15,2013-03-22 12:14:00,
2013-03-22 07:20:00,32.7,18.7,30.06,NW,311,1.0,1.0,56,0.00,,,0.00,Wunderground v.1.15,2013-03-22 12:20:00,
2013-03-22 07:25:00,32.8,18.8,30.07,NW,309,1.0,9.0,56,0.00,,,0.00,Wunderground v.1.15,2013-03-22 12:25:00,
2013-03-22 07:32:00,32.8,18.8,30.07,NW,311,1.0,9.0,56,0.00,,,0.00,Wunderground v.1.15,2013-03-22 12:32:00,
2013-03-22 07:37:00,32.9,18.9,30.07,NW,311,1.0,9.0,56,0.00,,,0.00,Wunderground v.1.15,2013-03-22 12:37:00,
2013-03-22 07:42:00,33.0,19.0,30.07,WNW,303,0.0,9.0,56,0.00,,,0.00,Wunderground v.1.15,2013-03-22 12:42:00,
2013-03-22 07:48:00,33.2,18.8,30.07,WNW,303,0.0,9.0,55,0.00,,,0.00,Wunderground v.1.15,2013-03-22 12:48:00,
2013-03-22 07:53:00,33.3,18.4,30.07,WNW,303,0.0,9.0,54,0.00,,,0.00,Wunderground v.1.15,2013-03-22 12:53:00,
2013-03-22 07:58:00,33.5,19.0,30.08,WNW,303,0.0,9.0,55,0.00,,,0.00,Wunderground v.1.15,2013-03-22 12:58:00,
2013-03-22 08:04:00,33.7,19.7,30.08,NW,311,0.0,9.0,56,0.00,,,0.00,Wunderground v.1.15,2013-03-22 13:04:00,
2013-03-22 08:09:00,33.7,20.1,30.08,NW,311,0.0,9.0,57,0.00,,,0.00,Wunderground v.1.15,2013-03-22 13:09:00,
2013-03-22 08:14:00,33.7,19.7,30.08,NW,305,0.0,9.0,56,0.00,,,0.00,Wunderground v.1.15,2013-03-22 13:14:00,
2013-03-22 08:20:00,33.8,20.2,30.08,WNW,302,0.0,9.0,57,0.00,,,0.00,Wunderground v.1.15,2013-03-22 13:20:00,
2013-03-22 08:25:00,33.8,20.2,30.08,NW,307,0.0,9.0,57,0.00,,,0.00,Wunderground v.1.15,2013-03-22 13:25:00,
2013-03-22 08:30:00,33.9,20.7,30.08,NW,307,0.0,9.0,58,0.00,,,0.00,Wunderground v.1.15,2013-03-22 13:30:00,
2013-03-22 08:36:00,33.9,21.5,30.09,NW,307,0.0,9.0,60,0.00,,,0.00,Wunderground v.1.15,2013-03-22 13:36:00,
2013-03-22 08:42:00,34.0,21.2,30.09,NW,314,0.0,9.0,59,0.00,,,0.00,Wunderground v.1.15,2013-03-22 13:42:00,
2013-03-22 08:48:00,33.9,21.9,30.08,NW,320,1.0,9.0,61,0.00,,,0.00,Wunderground v.1.15,2013-03-22 13:48:00,
2013-03-22 08:53:00,33.8,21.8,30.08,NW,317,1.0,9.0,61,0.00,,,0.00,Wunderground v.1.15,2013-03-22 13:53:00,
2013-03-22 08:59:00,33.9,22.6,30.08,NW,305,1.0,9.0,63,0.00,,,0.00,Wunderground v.1.15,2013-03-22 13:59:00,
2013-03-22 09:04:00,34.1,22.8,30.09,WNW,297,1.0,9.0,63,0.00,,,0.00,Wunderground v.1.15,2013-03-22 14:04:00,
2013-03-22 09:09:00,34.3,22.6,30.08,NW,311,1.0,9.0,62,0.00,,,0.00,Wunderground v.1.15,2013-03-22 14:09:00,
2013-03-22 09:15:00,34.3,22.2,30.08,NW,309,1.0,9.0,61,0.00,,,0.00,Wunderground v.1.15,2013-03-22 14:15:00,
2013-03-22 09:20:00,34.4,22.7,30.08,NW,314,1.0,9.0,62,0.00,,,0.00,Wunderground v.1.15,2013-03-22 14:20:00,
2013-03-22 09:25:00,34.4,21.1,30.08,NW,313,1.0,9.0,58,0.00,,,0.00,Wunderground v.1.15,2013-03-22 14:25:00,
2013-03-22 09:31:00,34.6,22.1,30.08,NW,317,2.0,9.0,60,0.00,,,0.00,Wunderground v.1.15,2013-03-22 14:31:00,
2013-03-22 09:37:00,34.9,22.4,30.08,NW,307,1.0,9.0,60,0.00,,,0.00,Wunderground v.1.15,2013-03-22 14:37:00,
2013-03-22 09:42:00,35.0,21.7,30.07,ENE,74,2.0,9.0,58,0.00,,,0.00,Wunderground v.1.15,2013-03-22 14:42:00,
2013-03-22 09:48:00,34.8,22.3,30.07,NW,309,2.0,9.0,60,0.00,,,0.00,Wunderground v.1.15,2013-03-22 14:48:00,
2013-03-22 09:53:00,35.0,22.1,30.08,NW,314,2.0,9.0,59,0.00,,,0.00,Wunderground v.1.15,2013-03-22 14:53:00,
2013-03-22 09:58:00,35.2,22.3,30.07,NW,321,1.0,9.0,59,0.00,,,0.00,Wunderground v.1.15,2013-03-22 14:58:00,
2013-03-22 10:04:00,35.5,20.9,30.07,NW,310,2.0,9.0,55,0.00,,,0.00,Wunderground v.1.15,2013-03-22 15:04:00,
2013-03-22 10:09:00,35.8,20.3,30.07,NW,310,2.0,9.0,53,0.00,,,0.00,Wunderground v.1.15,2013-03-22 15:09:00,
2013-03-22 10:14:00,36.0,20.1,30.06,NW,314,2.0,9.0,52,0.00,,,0.00,Wunderground v.1.15,2013-03-22 15:14:00,
2013-03-22 10:20:00,36.3,18.9,30.06,NW,313,2.0,9.0,49,0.00,,,0.00,Wunderground v.1.15,2013-03-22 15:20:00,
2013-03-22 10:25:00,36.6,19.7,30.06,NNW,345,2.0,9.0,50,0.00,,,0.00,Wunderground v.1.15,2013-03-22 15:25:00,
2013-03-22 10:32:00,37.1,19.7,30.06,NNW,330,2.0,9.0,49,0.00,,,0.00,Wunderground v.1.15,2013-03-22 15:32:00,
2013-03-22 10:38:00,37.5,19.6,30.06,NW,309,2.0,9.0,48,0.00,,,0.00,Wunderground v.1.15,2013-03-22 15:38:00,
2013-03-22 10:43:00,38.1,20.1,30.07,WNW,300,1.0,9.0,48,0.00,,,0.00,Wunderground v.1.15,2013-03-22 15:43:00,
2013-03-22 10:48:00,38.2,20.2,30.07,NNW,332,1.0,9.0,48,0.00,,,0.00,Wunderground v.1.15,2013-03-22 15:48:00,
2013-03-22 10:54:00,38.0,20.0,30.07,NW,321,2.0,9.0,48,0.00,,,0.00,Wunderground v.1.15,2013-03-22 15:54:00,
2013-03-22 10:59:00,38.2,20.7,30.06,NW,308,2.0,9.0,49,0.00,,,0.00,Wunderground v.1.15,2013-03-22 15:59:00,
2013-03-22 11:05:00,38.8,20.8,30.06,NE,46,1.0,9.0,48,0.00,,,0.00,Wunderground v.1.15,2013-03-22 16:05:00,
2013-03-22 11:10:00,38.7,20.7,30.06,WNW,287,2.0,9.0,48,0.00,,,0.00,Wunderground v.1.15,2013-03-22 16:10:00,
2013-03-22 11:16:00,39.4,20.8,30.07,NW,310,1.0,9.0,47,0.00,,,0.00,Wunderground v.1.15,2013-03-22 16:16:00,
2013-03-22 11:22:00,40.0,20.3,30.07,WNW,284,1.0,9.0,45,0.00,,,0.00,Wunderground v.1.15,2013-03-22 16:22:00,
2013-03-22 11:27:00,40.6,20.9,30.07,NW,313,1.0,9.0,45,0.00,,,0.00,Wunderground v.1.15,2013-03-22 16:27:00,
2013-03-22 11:32:00,41.1,21.9,30.08,WNW,299,0.0,9.0,46,0.00,,,0.00,Wunderground v.1.15,2013-03-22 16:32:00,
2013-03-22 11:37:00,41.7,21.9,30.08,NW,306,0.0,9.0,45,0.00,,,0.00,Wunderground v.1.15,2013-03-22 16:37:00,
2013-03-22 11:43:00,41.7,21.9,30.07,West,279,1.0,9.0,45,0.00,,,0.00,Wunderground v.1.15,2013-03-22 16:43:00,
2013-03-22 11:49:00,41.2,21.4,30.07,NW,311,1.0,9.0,45,0.00,,,0.00,Wunderground v.1.15,2013-03-22 16:49:00,
2013-03-22 11:54:00,41.4,21.6,30.07,West,268,1.0,9.0,45,0.00,,,0.00,Wunderground v.1.15,2013-03-22 16:54:00,
2013-03-22 11:59:00,41.7,21.9,30.07,WNW,296,1.0,9.0,45,0.00,,,0.00,Wunderground v.1.15,2013-03-22 16:59:00,
2013-03-22 12:04:00,42.1,22.8,30.07,West,266,1.0,9.0,46,0.00,,,0.00,Wunderground v.1.15,2013-03-22 17:04:00,
2013-03-22 12:10:00,42.3,23.0,30.07,NW,324,2.0,2.0,46,0.00,,,0.00,Wunderground v.1.15,2013-03-22 17:10:00,
2013-03-22 12:15:00,42.6,21.6,30.06,NW,311,2.0,9.0,43,0.00,,,0.00,Wunderground v.1.15,2013-03-22 17:15:00,
2013-03-22 12:21:00,42.4,20.9,30.06,NW,305,2.0,9.0,42,0.00,,,0.00,Wunderground v.1.15,2013-03-22 17:21:00,
2013-03-22 12:26:00,43.5,22.5,30.05,WNW,303,1.0,9.0,43,0.00,,,0.00,Wunderground v.1.15,2013-03-22 17:26:00,
2013-03-22 12:31:00,44.3,21.5,30.05,NW,321,1.0,9.0,40,0.00,,,0.00,Wunderground v.1.15,2013-03-22 17:31:00,
2013-03-22 12:37:00,43.8,21.0,30.05,NW,313,2.0,9.0,40,0.00,,,0.00,Wunderground v.1.15,2013-03-22 17:37:00,
2013-03-22 12:42:00,43.7,21.5,30.05,WNW,299,2.0,9.0,41,0.00,,,0.00,Wunderground v.1.15,2013-03-22 17:42:00,
2013-03-22 12:47:00,43.8,21.6,30.05,NW,308,1.0,9.0,41,0.00,,,0.00,Wunderground v.1.15,2013-03-22 17:47:00,
2013-03-22 12:53:00,44.1,21.3,30.05,WNW,287,1.0,9.0,40,0.00,,,0.00,Wunderground v.1.15,2013-03-22 17:53:00,
2013-03-22 12:59:00,44.0,21.8,30.06,WNW,299,2.0,9.0,41,0.00,,,0.00,Wunderground v.1.15,2013-03-22 17:59:00,
2013-03-22 13:04:00,43.8,22.2,30.05,WSW,237,2.0,9.0,42,0.00,,,0.00,Wunderground v.1.15,2013-03-22 18:04:00,
2013-03-22 13:10:00,43.6,21.4,30.05,WSW,249,2.0,9.0,41,0.00,,,0.00,Wunderground v.1.15,2013-03-22 18:10:00,
2013-03-22 13:16:00,43.7,22.6,30.05,West,270,2.0,9.0,43,0.00,,,0.00,Wunderground v.1.15,2013-03-22 18:16:00,
2013-03-22 13:21:00,44.3,22.6,30.05,West,276,1.0,9.0,42,0.00,,,0.00,Wunderground v.1.15,2013-03-22 18:21:00,
2013-03-22 13:26:00,45.0,23.3,30.05,WNW,294,1.0,9.0,42,0.00,,,0.00,Wunderground v.1.15,2013-03-22 18:26:00,
2013-03-22 13:32:00,45.0,23.3,30.04,SW,230,1.0,9.0,42,0.00,,,0.00,Wunderground v.1.15,2013-03-22 18:32:00,
2013-03-22 13:37:00,44.7,23.0,30.04,West,267,3.0,9.0,42,0.00,,,0.00,Wunderground v.1.15,2013-03-22 18:37:00,
2013-03-22 13:43:00,44.9,23.7,30.04,WNW,282,3.0,9.0,43,0.00,,,0.00,Wunderground v.1.15,2013-03-22 18:43:00,
2013-03-22 13:48:00,45.2,24.0,30.04,WSW,256,2.0,9.0,43,0.00,,,0.00,Wunderground v.1.15,2013-03-22 18:48:00,
2013-03-22 13:53:00,45.5,24.3,30.03,West,277,2.0,9.0,43,0.00,,,0.00,Wunderground v.1.15,2013-03-22 18:53:00,
2013-03-22 13:59:00,45.5,24.3,30.03,West,276,2.0,9.0,43,0.00,,,0.00,Wunderground v.1.15,2013-03-22 18:59:00,
2013-03-22 14:04:00,45.6,24.4,30.03,WNW,293,2.0,9.0,43,0.00,,,0.00,Wunderground v.1.15,2013-03-22 19:04:00,
2013-03-22 14:10:00,45.5,24.8,30.03,WNW,282,2.0,9.0,44,0.00,,,0.00,Wunderground v.1.15,2013-03-22 19:10:00,
2013-03-22 14:15:00,45.4,24.2,30.03,West,273,3.0,9.0,43,0.00,,,0.00,Wunderground v.1.15,2013-03-22 19:15:00,
2013-03-22 14:20:00,45.4,25.8,30.02,WNW,300,3.0,3.0,46,0.00,,,0.00,Wunderground v.1.15,2013-03-22 19:20:00,
2013-03-22 14:25:00,45.8,25.1,30.02,WSW,250,1.0,9.0,44,0.00,,,0.00,Wunderground v.1.15,2013-03-22 19:25:00,
2013-03-22 14:31:00,45.6,25.5,30.01,WNW,294,2.0,9.0,45,0.00,,,0.00,Wunderground v.1.15,2013-03-22 19:31:00,
2013-03-22 14:36:00,45.4,24.7,30.02,WNW,283,3.0,9.0,44,0.00,,,0.00,Wunderground v.1.15,2013-03-22 19:36:00,
2013-03-22 14:41:00,45.2,25.1,30.01,WNW,283,2.0,9.0,45,0.00,,,0.00,Wunderground v.1.15,2013-03-22 19:41:00,
2013-03-22 14:47:00,45.3,25.7,30.01,WNW,287,2.0,9.0,46,0.00,,,0.00,Wunderground v.1.15,2013-03-22 19:47:00,
2013-03-22 14:53:00,45.3,25.2,30.01,WNW,302,2.0,9.0,45,0.00,,,0.00,Wunderground v.1.15,2013-03-22 19:53:00,
2013-03-22 14:58:00,45.5,25.4,30.01,West,268,1.0,9.0,45,0.00,,,0.00,Wunderground v.1.15,2013-03-22 19:58:00,
2013-03-22 15:04:00,45.5,25.4,30.01,WNW,282,1.0,9.0,45,0.00,,,0.00,Wunderground v.1.15,2013-03-22 20:04:00,
2013-03-22 15:09:00,45.4,25.3,30.01,West,276,2.0,9.0,45,0.00,,,0.00,Wunderground v.1.15,2013-03-22 20:09:00,
2013-03-22 15:14:00,45.5,25.9,30.00,WNW,293,1.0,9.0,46,0.00,,,0.00,Wunderground v.1.15,2013-03-22 20:14:00,
2013-03-22 15:19:00,45.6,25.5,30.00,WNW,290,1.0,9.0,45,0.00,,,0.00,Wunderground v.1.15,2013-03-22 20:19:00,
2013-03-22 15:25:00,45.5,25.4,30.00,WNW,300,1.0,9.0,45,0.00,,,0.00,Wunderground v.1.15,2013-03-22 20:25:00,
2013-03-22 15:30:00,45.5,25.4,30.00,WNW,283,2.0,2.0,45,0.00,,,0.00,Wunderground v.1.15,2013-03-22 20:30:00,
2013-03-22 15:35:00,45.9,25.7,30.00,West,272,1.0,9.0,45,0.00,,,0.00,Wunderground v.1.15,2013-03-22 20:35:00,
2013-03-22 15:41:00,45.7,25.5,30.00,WNW,290,2.0,9.0,45,0.00,,,0.00,Wunderground v.1.15,2013-03-22 20:41:00,
2013-03-22 15:48:00,45.9,26.3,30.00,WNW,294,1.0,9.0,46,0.00,,,0.00,Wunderground v.1.15,2013-03-22 20:48:00,
2013-03-22 15:53:00,45.9,25.7,30.00,NW,309,1.0,9.0,45,0.00,,,0.00,Wunderground v.1.15,2013-03-22 20:53:00,
2013-03-22 15:58:00,46.0,26.4,30.00,WNW,297,1.0,9.0,46,0.00,,,0.00,Wunderground v.1.15,2013-03-22 20:58:00,
2013-03-22 16:03:00,46.4,26.2,30.00,WNW,285,1.0,9.0,45,0.00,,,0.00,Wunderground v.1.15,2013-03-22 21:03:00,
2013-03-22 16:09:00,46.3,26.6,30.00,WNW,293,1.0,9.0,46,0.00,,,0.00,Wunderground v.1.15,2013-03-22 21:09:00,
2013-03-22 16:14:00,46.4,26.7,30.00,WNW,298,1.0,9.0,46,0.00,,,0.00,Wunderground v.1.15,2013-03-22 21:14:00,
2013-03-22 16:20:00,46.6,26.4,30.00,WNW,290,0.0,9.0,45,0.00,,,0.00,Wunderground v.1.15,2013-03-22 21:20:00,
2013-03-22 16:25:00,46.8,26.6,30.00,WNW,282,0.0,9.0,45,0.00,,,0.00,Wunderground v.1.15,2013-03-22 21:25:00,
2013-03-22 16:30:00,46.7,25.9,30.00,WNW,287,1.0,9.0,44,0.00,,,0.00,Wunderground v.1.15,2013-03-22 21:30:00,
2013-03-22 16:36:00,46.6,26.4,30.00,WNW,297,1.0,9.0,45,0.00,,,0.00,Wunderground v.1.15,2013-03-22 21:36:00,
2013-03-22 16:41:00,46.8,27.1,30.00,WNW,285,1.0,9.0,46,0.00,,,0.00,Wunderground v.1.15,2013-03-22 21:41:00,
2013-03-22 16:47:00,46.6,26.4,30.00,West,280,1.0,9.0,45,0.00,,,0.00,Wunderground v.1.15,2013-03-22 21:47:00,
2013-03-22 16:53:00,46.6,27.4,30.00,WNW,292,0.0,9.0,47,0.00,,,0.00,Wunderground v.1.15,2013-03-22 21:53:00,
2013-03-22 16:59:00,46.6,27.4,30.00,WNW,296,0.0,9.0,47,0.00,,,0.00,Wunderground v.1.15,2013-03-22 21:59:00,
2013-03-22 17:04:00,46.5,26.8,30.00,WNW,300,0.0,9.0,46,0.00,,,0.00,Wunderground v.1.15,2013-03-22 22:04:00,
2013-03-22 17:09:00,46.4,26.7,30.00,WNW,299,0.0,9.0,46,0.00,,,0.00,Wunderground v.1.15,2013-03-22 22:09:00,
2013-03-22 17:14:00,46.4,26.7,30.00,WNW,287,0.0,9.0,46,0.00,,,0.00,Wunderground v.1.15,2013-03-22 22:14:00,
2013-03-22 17:20:00,46.3,26.6,30.00,WNW,287,0.0,9.0,46,0.00,,,0.00,Wunderground v.1.15,2013-03-22 22:20:00,
2013-03-22 17:25:00,46.3,26.6,30.00,WNW,287,0.0,9.0,46,0.00,,,0.00,Wunderground v.1.15,2013-03-22 22:25:00,
2013-03-22 17:30:00,46.3,27.2,30.00,WNW,291,0.0,9.0,47,0.00,,,0.00,Wunderground v.1.15,2013-03-22 22:30:00,
2013-03-22 17:36:00,46.4,26.7,30.00,WNW,290,0.0,9.0,46,0.00,,,0.00,Wunderground v.1.15,2013-03-22 22:36:00,
2013-03-22 17:42:00,46.5,29.3,30.00,WNW,290,0.0,9.0,51,0.00,,,0.00,Wunderground v.1.15,2013-03-22 22:42:00,
2013-03-22 17:47:00,46.4,27.8,30.00,WNW,290,0.0,9.0,48,0.00,,,0.00,Wunderground v.1.15,2013-03-22 22:47:00,
2013-03-22 17:53:00,46.2,27.6,30.00,WNW,290,0.0,9.0,48,0.00,,,0.00,Wunderground v.1.15,2013-03-22 22:53:00,
2013-03-22 17:58:00,46.2,28.6,30.00,WNW,290,0.0,9.0,50,0.00,,,0.00,Wunderground v.1.15,2013-03-22 22:58:00,
2013-03-22 18:03:00,46.1,28.5,30.00,WNW,292,0.0,9.0,50,0.00,,,0.00,Wunderground v.1.15,2013-03-22 23:03:00,
2013-03-22 18:09:00,45.9,28.3,30.01,WNW,292,0.0,9.0,50,0.00,,,0.00,Wunderground v.1.15,2013-03-22 23:09:00,
2013-03-22 18:14:00,45.9,28.8,30.00,WNW,292,0.0,9.0,51,0.00,,,0.00,Wunderground v.1.15,2013-03-22 23:14:00,
2013-03-22 18:20:00,45.8,29.2,30.00,WNW,292,0.0,9.0,52,0.00,,,0.00,Wunderground v.1.15,2013-03-22 23:20:00,
2013-03-22 18:25:00,45.8,28.7,30.00,WNW,292,0.0,9.0,51,0.00,,,0.00,Wunderground v.1.15,2013-03-22 23:25:00,
2013-03-22 18:30:00,45.7,28.1,30.00,WNW,293,0.0,9.0,50,0.00,,,0.00,Wunderground v.1.15,2013-03-22 23:30:00,
2013-03-22 18:36:00,45.7,28.1,30.00,WNW,293,0.0,9.0,50,0.00,,,0.00,Wunderground v.1.15,2013-03-22 23:36:00,
2013-03-22 18:41:00,45.6,28.0,30.01,WNW,293,0.0,9.0,50,0.00,,,0.00,Wunderground v.1.15,2013-03-22 23:41:00,
2013-03-22 18:46:00,45.6,28.5,30.01,WNW,293,0.0,9.0,51,0.00,,,0.00,Wunderground v.1.15,2013-03-22 23:46:00,
2013-03-22 18:52:00,45.4,27.3,30.01,WNW,293,0.0,9.0,49,0.00,,,0.00,Wunderground v.1.15,2013-03-22 23:52:00,
2013-03-22 18:57:00,45.2,27.2,30.01,WNW,298,0.0,9.0,49,0.00,,,0.00,Wunderground v.1.15,2013-03-22 23:57:00,
2013-03-22 19:03:00,45.1,27.6,30.01,WNW,302,0.0,9.0,50,0.00,,,0.00,Wunderground v.1.15,2013-03-23 00:03:00,
2013-03-22 19:08:00,44.9,27.4,30.01,WNW,293,1.0,9.0,50,0.00,,,0.00,Wunderground v.1.15,2013-03-23 00:08:00,
2013-03-22 19:14:00,44.8,27.3,30.02,WNW,293,1.0,9.0,50,0.00,,,0.00,Wunderground v.1.15,2013-03-23 00:14:00,
2013-03-22 19:19:00,44.8,26.8,30.02,WNW,295,0.0,9.0,49,0.00,,,0.00,Wunderground v.1.15,2013-03-23 00:19:00,
2013-03-22 19:25:00,44.7,27.2,30.02,WNW,295,0.0,9.0,50,0.00,,,0.00,Wunderground v.1.15,2013-03-23 00:25:00,
2013-03-22 19:30:00,44.6,27.6,30.02,WNW,293,0.0,9.0,51,0.00,,,0.00,Wunderground v.1.15,2013-03-23 00:30:00,
2013-03-22 19:36:00,44.5,27.0,30.02,WNW,292,0.0,9.0,50,0.00,,,0.00,Wunderground v.1.15,2013-03-23 00:36:00,
2013-03-22 19:41:00,44.5,27.0,30.02,WNW,293,0.0,9.0,50,0.00,,,0.00,Wunderground v.1.15,2013-03-23 00:41:00,
2013-03-22 19:46:00,44.5,27.0,30.03,WNW,293,0.0,9.0,50,0.00,,,0.00,Wunderground v.1.15,2013-03-23 00:46:00,
2013-03-22 19:52:00,44.5,27.0,30.03,WNW,293,0.0,9.0,50,0.00,,,0.00,Wunderground v.1.15,2013-03-23 00:52:00,
2013-03-22 19:58:00,44.5,28.9,30.03,WNW,293,0.0,9.0,54,0.00,,,0.00,Wunderground v.1.15,2013-03-23 00:58:00,
2013-03-22 20:03:00,44.4,27.4,30.03,WNW,294,0.0,9.0,51,0.00,,,0.00,Wunderground v.1.15,2013-03-23 01:03:00,
2013-03-22 20:08:00,44.3,27.8,30.03,WNW,294,0.0,9.0,52,0.00,,,0.00,Wunderground v.1.15,2013-03-23 01:08:00,
2013-03-22 20:14:00,44.3,27.8,30.03,WNW,294,0.0,9.0,52,0.00,,,0.00,Wunderground v.1.15,2013-03-23 01:14:00,
2013-03-22 20:19:00,44.2,28.1,30.03,WNW,294,0.0,9.0,53,0.00,,,0.00,Wunderground v.1.15,2013-03-23 01:19:00,
2013-03-22 20:24:00,44.1,27.6,30.03,WNW,294,0.0,9.0,52,0.00,,,0.00,Wunderground v.1.15,2013-03-23 01:24:00,
2013-03-22 20:30:00,44.1,28.5,30.03,WNW,294,0.0,9.0,54,0.00,,,0.00,Wunderground v.1.15,2013-03-23 01:30:00,
2013-03-22 20:35:00,44.0,28.0,30.03,WNW,295,0.0,9.0,53,0.00,,,0.00,Wunderground v.1.15,2013-03-23 01:35:00,
2013-03-22 20:41:00,43.9,28.3,30.03,WNW,294,0.0,9.0,54,0.00,,,0.00,Wunderground v.1.15,2013-03-23 01:41:00,
2013-03-22 20:46:00,43.9,27.9,30.02,WNW,302,0.0,9.0,53,0.00,,,0.00,Wunderground v.1.15,2013-03-23 01:46:00,
2013-03-22 20:52:00,43.8,28.2,30.03,WNW,302,0.0,9.0,54,0.00,,,0.00,Wunderground v.1.15,2013-03-23 01:52:00,
2013-03-22 20:57:00,43.8,27.8,30.03,WNW,302,0.0,9.0,53,0.00,,,0.00,Wunderground v.1.15,2013-03-23 01:57:00,
2013-03-22 21:03:00,43.9,27.9,30.03,WNW,303,1.0,9.0,53,0.00,,,0.00,Wunderground v.1.15,2013-03-23 02:03:00,
2013-03-22 21:08:00,44.1,27.6,30.03,NW,311,1.0,9.0,52,0.00,,,0.00,Wunderground v.1.15,2013-03-23 02:08:00,
2013-03-22 21:14:00,44.1,28.0,30.03,NW,309,1.0,9.0,53,0.00,,,0.00,Wunderground v.1.15,2013-03-23 02:14:00,
2013-03-22 21:19:00,44.0,28.4,30.03,NW,309,0.0,9.0,54,0.00,,,0.00,Wunderground v.1.15,2013-03-23 02:19:00,
2013-03-22 21:24:00,43.9,28.3,30.03,NW,310,1.0,9.0,54,0.00,,,0.00,Wunderground v.1.15,2013-03-23 02:24:00,
2013-03-22 21:30:00,43.9,28.8,30.03,NW,318,1.0,9.0,55,0.00,,,0.00,Wunderground v.1.15,2013-03-23 02:30:00,
2013-03-22 21:35:00,43.9,29.2,30.03,NW,309,1.0,9.0,56,0.00,,,0.00,Wunderground v.1.15,2013-03-23 02:35:00,
2013-03-22 21:41:00,43.9,29.6,30.03,NW,320,1.0,9.0,57,0.00,,,0.00,Wunderground v.1.15,2013-03-23 02:41:00,
2013-03-22 21:46:00,43.8,29.5,30.03,NW,314,2.0,9.0,57,0.00,,,0.00,Wunderground v.1.15,2013-03-23 02:46:00,
2013-03-22 21:52:00,43.7,29.9,30.03,NW,313,1.0,9.0,58,0.00,,,0.00,Wunderground v.1.15,2013-03-23 02:52:00,
2013-03-22 21:57:00,43.7,29.9,30.03,NW,311,1.0,9.0,58,0.00,,,0.00,Wunderground v.1.15,2013-03-23 02:57:00,
2013-03-22 22:03:00,43.6,29.8,30.03,NW,317,1.0,9.0,58,0.00,,,0.00,Wunderground v.1.15,2013-03-23 03:03:00,
2013-03-22 22:08:00,43.7,29.9,30.03,NW,321,1.0,9.0,58,0.00,,,0.00,Wunderground v.1.15,2013-03-23 03:08:00,
2013-03-22 22:13:00,43.6,29.8,30.03,NW,314,1.0,9.0,58,0.00,,,0.00,Wunderground v.1.15,2013-03-23 03:13:00,
2013-03-22 22:19:00,43.7,29.5,30.04,NW,309,1.0,9.0,57,0.00,,,0.00,Wunderground v.1.15,2013-03-23 03:19:00,
2013-03-22 22:24:00,43.7,29.5,30.04,NW,309,0.0,9.0,57,0.00,,,0.00,Wunderground v.1.15,2013-03-23 03:24:00,
2013-03-22 22:30:00,43.7,29.5,30.04,NW,309,0.0,9.0,57,0.00,,,0.00,Wunderground v.1.15,2013-03-23 03:30:00,
2013-03-22 22:36:00,43.5,29.7,30.05,NW,309,1.0,9.0,58,0.00,,,0.00,Wunderground v.1.15,2013-03-23 03:36:00,
2013-03-22 22:41:00,43.4,30.0,30.04,NW,309,0.0,9.0,59,0.00,,,0.00,Wunderground v.1.15,2013-03-23 03:41:00,
2013-03-22 22:46:00,43.0,32.4,30.04,NW,307,0.0,9.0,66,0.16,,,0.02,Wunderground v.1.15,2013-03-23 03:46:00,
2013-03-22 22:52:00,42.0,32.2,30.03,NW,307,0.0,9.0,68,0.17,,,0.03,Wunderground v.1.15,2013-03-23 03:52:00,
2013-03-22 22:57:00,41.5,32.1,30.03,NW,307,1.0,9.0,69,0.08,,,0.03,Wunderground v.1.15,2013-03-23 03:57:00,
2013-03-22 23:00:00,41.5,31.0,30.03,NW,323,1.0,9.0,66,0.06,,,0.03,Wunderground v.1.15,2013-03-23 04:00:00,
2013-03-22 23:02:00,41.6,31.4,30.03,NW,311,1.0,9.0,67,0.05,,,0.03,Wunderground v.1.15,2013-03-23 04:02:00,
2013-03-22 23:06:00,41.3,33.3,30.03,NW,311,1.0,9.0,73,0.04,,,0.03,Wunderground v.1.15,2013-03-23 04:06:00,
2013-03-22 23:11:00,41.0,32.0,30.03,NW,311,1.0,9.0,70,0.00,,,0.03,Wunderground v.1.15,2013-03-23 04:11:00,
2013-03-22 23:16:00,41.2,31.8,30.03,NW,311,2.0,9.0,69,0.00,,,0.03,Wunderground v.1.15,2013-03-23 04:16:00,
2013-03-22 23:21:00,41.3,32.6,30.03,NW,311,1.0,9.0,71,0.00,,,0.03,Wunderground v.1.15,2013-03-23 04:21:00,
2013-03-22 23:27:00,40.9,33.9,30.02,NW,318,2.0,9.0,76,0.00,,,0.03,Wunderground v.1.15,2013-03-23 04:27:00,
2013-03-22 23:32:00,40.6,34.0,30.02,NW,309,2.0,9.0,77,0.00,,,0.03,Wunderground v.1.15,2013-03-23 04:32:00,
2013-03-22 23:37:00,40.5,34.5,30.02,NW,316,1.0,9.0,79,0.00,,,0.03,Wunderground v.1.15,2013-03-23 04:37:00,
2013-03-22 23:43:00,40.2,34.8,30.02,NW,316,1.0,9.0,81,0.00,,,0.03,Wunderground v.1.15,2013-03-23 04:43:00,
2013-03-22 23:48:00,40.1,35.0,30.02,NW,309,1.0,9.0,82,0.00,,,0.03,Wunderground v.1.15,2013-03-23 04:48:00,
2013-03-22 23:53:00,40.0,34.9,30.02,NW,309,1.0,9.0,82,0.00,,,0.03,Wunderground v.1.15,2013-03-23 04:53:00,
2013-03-22 23:59:00,40.1,34.7,30.03,NW,313,1.0,9.0,81,0.00,,,0.03,Wunderground v.1.15,2013-03-23 04:59:00,